sensor_id;sensor_type;location;lat;lon;timestamp;pressure;altitude;pressure_sealevel;temperature;humidity
44198;BME280;30157;55.512;37.764;2023-05-14T00:01:25;100554.00;;;13.22;48.60
44198;BME280;30157;55.512;37.764;2023-05-14T00:03:50;100534.94;;;13.08;48.65
44198;BME280;30157;55.512;37.764;2023-05-14T00:06:16;100565.31;;;13.12;48.83
44198;BME280;30157;55.512;37.764;2023-05-14T00:08:41;100540.22;;;12.92;49.32
44198;BME280;30157;55.512;37.764;2023-05-14T00:11:07;100564.50;;;13.02;49.27
44198;BME280;30157;55.512;37.764;2023-05-14T00:13:36;100498.59;;;12.65;49.34
44198;BME280;30157;55.512;37.764;2023-05-14T00:16:02;100547.16;;;12.87;49.54
44198;BME280;30157;55.512;37.764;2023-05-14T00:18:27;100506.41;;;12.58;49.72
44198;BME280;30157;55.512;37.764;2023-05-14T00:20:53;100558.44;;;12.88;49.84
44198;BME280;30157;55.512;37.764;2023-05-14T00:23:21;100458.75;;;12.21;49.93
44198;BME280;30157;55.512;37.764;2023-05-14T00:25:47;100561.97;;;12.79;50.19
44198;BME280;30157;55.512;37.764;2023-05-14T00:28:13;100531.63;;;12.55;50.34
44198;BME280;30157;55.512;37.764;2023-05-14T00:30:38;100560.22;;;12.70;50.50
44198;BME280;30157;55.512;37.764;2023-05-14T00:33:05;100533.34;;;12.50;50.69
44198;BME280;30157;55.512;37.764;2023-05-14T00:35:31;100545.50;;;12.54;50.97
44198;BME280;30157;55.512;37.764;2023-05-14T00:38:00;100548.09;;;12.49;51.16
44198;BME280;30157;55.512;37.764;2023-05-14T00:40:26;100514.31;;;12.20;51.21
44198;BME280;30157;55.512;37.764;2023-05-14T00:42:53;100567.22;;;12.47;51.23
44198;BME280;30157;55.512;37.764;2023-05-14T00:45:19;100549.84;;;12.35;51.53
44198;BME280;30157;55.512;37.764;2023-05-14T00:47:45;100568.06;;;12.39;51.52
44198;BME280;30157;55.512;37.764;2023-05-14T00:50:12;100568.06;;;12.36;51.81
44198;BME280;30157;55.512;37.764;2023-05-14T00:52:39;100576.75;;;12.32;51.96
44198;BME280;30157;55.512;37.764;2023-05-14T00:55:06;100575.00;;;12.30;51.92
44198;BME280;30157;55.512;37.764;2023-05-14T00:57:35;100509.03;;;11.86;52.06
44198;BME280;30157;55.512;37.764;2023-05-14T01:00:02;100569.81;;;12.17;52.49
44198;BME280;30157;55.512;37.764;2023-05-14T01:02:30;100514.22;;;11.76;52.63
44198;BME280;30157;55.512;37.764;2023-05-14T01:04:56;100524.63;;;11.75;52.73
44198;BME280;30157;55.512;37.764;2023-05-14T01:07:31;100573.25;;;12.05;52.87
44198;BME280;30157;55.512;37.764;2023-05-14T01:10:01;100570.63;;;12.01;52.80
44198;BME280;30157;55.512;37.764;2023-05-14T01:15:28;100562.78;;;11.87;53.02
44198;BME280;30157;55.512;37.764;2023-05-14T01:18:03;100526.34;;;11.62;52.66
44198;BME280;30157;55.512;37.764;2023-05-14T01:20:29;100570.59;;;11.84;53.17
44198;BME280;30157;55.512;37.764;2023-05-14T01:22:56;100574.94;;;11.86;53.41
44198;BME280;30157;55.512;37.764;2023-05-14T01:25:22;100589.66;;;11.83;53.67
44198;BME280;30157;55.512;37.764;2023-05-14T01:27:54;100583.56;;;11.77;53.87
44198;BME280;30157;55.512;37.764;2023-05-14T01:30:28;100587.03;;;11.73;53.95
44198;BME280;30157;55.512;37.764;2023-05-14T01:32:59;100572.28;;;11.63;54.03
44198;BME280;30157;55.512;37.764;2023-05-14T01:35:27;100586.16;;;11.65;54.53
44198;BME280;30157;55.512;37.764;2023-05-14T01:37:55;100593.94;;;11.68;54.54
44198;BME280;30157;55.512;37.764;2023-05-14T01:40:23;100603.50;;;11.68;54.63
44198;BME280;30157;55.512;37.764;2023-05-14T01:42:50;100605.22;;;11.69;54.85
44198;BME280;30157;55.512;37.764;2023-05-14T01:45:19;100600.00;;;11.64;54.96
44198;BME280;30157;55.512;37.764;2023-05-14T01:47:45;100586.13;;;11.51;55.12
44198;BME280;30157;55.512;37.764;2023-05-14T01:50:10;100600.00;;;11.59;55.17
44198;BME280;30157;55.512;37.764;2023-05-14T01:52:36;100533.13;;;11.15;55.34
44198;BME280;30157;55.512;37.764;2023-05-14T01:55:02;100600.84;;;11.54;55.52
44198;BME280;30157;55.512;37.764;2023-05-14T01:57:30;100593.91;;;11.54;55.67
44198;BME280;30157;55.512;37.764;2023-05-14T01:59:56;100573.03;;;11.36;55.70
44198;BME280;30157;55.512;37.764;2023-05-14T02:02:21;100565.25;;;11.33;55.84
44198;BME280;30157;55.512;37.764;2023-05-14T02:04:47;100593.03;;;11.48;56.03
44198;BME280;30157;55.512;37.764;2023-05-14T02:07:13;100554.81;;;11.23;56.17
44198;BME280;30157;55.512;37.764;2023-05-14T02:09:39;100586.91;;;11.36;56.07
44198;BME280;30157;55.512;37.764;2023-05-14T02:12:07;100603.41;;;11.45;56.27
44198;BME280;30157;55.512;37.764;2023-05-14T02:14:33;100611.22;;;11.51;56.11
44198;BME280;30157;55.512;37.764;2023-05-14T02:16:58;100612.97;;;11.52;56.19
44198;BME280;30157;55.512;37.764;2023-05-14T02:19:24;100612.97;;;11.55;56.13
44198;BME280;30157;55.512;37.764;2023-05-14T02:22:11;100551.34;;;11.26;56.02
44198;BME280;30157;55.512;37.764;2023-05-14T02:24:37;100608.66;;;11.58;55.94
44198;BME280;30157;55.512;37.764;2023-05-14T02:27:03;100614.75;;;11.68;55.71
44198;BME280;30157;55.512;37.764;2023-05-14T02:29:29;100616.50;;;11.71;55.43
44198;BME280;30157;55.512;37.764;2023-05-14T02:31:55;100623.44;;;11.73;55.41
44198;BME280;30157;55.512;37.764;2023-05-14T02:34:20;100572.22;;;11.46;55.22
44198;BME280;30157;55.512;37.764;2023-05-14T02:36:46;100627.78;;;11.79;55.16
44198;BME280;30157;55.512;37.764;2023-05-14T02:39:12;100620.88;;;11.81;54.93
44198;BME280;30157;55.512;37.764;2023-05-14T02:41:38;100626.09;;;11.92;54.74
44198;BME280;30157;55.512;37.764;2023-05-14T02:44:04;100568.84;;;11.75;54.44
44198;BME280;30157;55.512;37.764;2023-05-14T02:46:31;100631.41;;;12.23;54.02
44198;BME280;30157;55.512;37.764;2023-05-14T02:48:57;100600.16;;;12.23;53.56
44198;BME280;30157;55.512;37.764;2023-05-14T02:51:23;100607.97;;;12.49;53.05
44198;BME280;30157;55.512;37.764;2023-05-14T02:53:49;100607.97;;;12.66;52.62
44198;BME280;30157;55.512;37.764;2023-05-14T02:56:14;100627.03;;;12.87;52.42
44198;BME280;30157;55.512;37.764;2023-05-14T02:58:40;100632.22;;;13.08;51.95
44198;BME280;30157;55.512;37.764;2023-05-14T03:01:06;100617.44;;;13.18;51.88
44198;BME280;30157;55.512;37.764;2023-05-14T03:03:33;100640.84;;;13.48;51.10
44198;BME280;30157;55.512;37.764;2023-05-14T03:05:59;100621.69;;;13.53;50.53
44198;BME280;30157;55.512;37.764;2023-05-14T03:08:25;100632.91;;;13.78;49.79
44198;BME280;30157;55.512;37.764;2023-05-14T03:10:50;100635.38;;;13.97;49.86
44198;BME280;30157;55.512;37.764;2023-05-14T03:13:16;100630.94;;;14.18;49.40
44198;BME280;30157;55.512;37.764;2023-05-14T03:15:44;100635.97;;;14.41;49.24
44198;BME280;30157;55.512;37.764;2023-05-14T03:18:14;100634.09;;;14.58;48.18
44198;BME280;30157;55.512;37.764;2023-05-14T03:20:40;100632.25;;;14.74;47.67
44198;BME280;30157;55.512;37.764;2023-05-14T03:23:06;100644.34;;;14.83;47.24
44198;BME280;30157;55.512;37.764;2023-05-14T03:25:32;100642.53;;;14.94;47.25
44198;BME280;30157;55.512;37.764;2023-05-14T03:27:59;100627.63;;;15.00;46.75
44198;BME280;30157;55.512;37.764;2023-05-14T03:30:25;100645.72;;;15.23;46.60
44198;BME280;30157;55.512;37.764;2023-05-14T03:32:50;100586.69;;;15.00;46.07
44198;BME280;30157;55.512;37.764;2023-05-14T03:35:16;100646.28;;;15.50;45.35
44198;BME280;30157;55.512;37.764;2023-05-14T03:37:43;100605.47;;;15.33;45.42
44198;BME280;30157;55.512;37.764;2023-05-14T03:40:09;100655.50;;;15.83;44.83
44198;BME280;30157;55.512;37.764;2023-05-14T03:42:35;100602.59;;;15.55;44.74
44198;BME280;30157;55.512;37.764;2023-05-14T03:45:02;100654.28;;;16.09;44.75
44198;BME280;30157;55.512;37.764;2023-05-14T03:47:30;100650.28;;;16.42;43.45
44198;BME280;30157;55.512;37.764;2023-05-14T03:49:57;100660.72;;;16.44;43.13
44198;BME280;30157;55.512;37.764;2023-05-14T03:52:23;100648.81;;;16.23;43.14
44198;BME280;30157;55.512;37.764;2023-05-14T03:54:49;100657.25;;;16.42;43.39
44198;BME280;30157;55.512;37.764;2023-05-14T03:57:14;100657.72;;;16.67;42.76
44198;BME280;30157;55.512;37.764;2023-05-14T03:59:40;100655.75;;;16.80;42.49
44198;BME280;30157;55.512;37.764;2023-05-14T04:02:06;100662.28;;;17.09;42.22
44198;BME280;30157;55.512;37.764;2023-05-14T04:04:32;100661.78;;;17.35;41.81
44198;BME280;30157;55.512;37.764;2023-05-14T04:06:58;100666.75;;;17.51;41.27
44198;BME280;30157;55.512;37.764;2023-05-14T04:09:27;100666.59;;;17.58;40.85
44198;BME280;30157;55.512;37.764;2023-05-14T04:11:53;100648.44;;;17.46;40.75
44198;BME280;30157;55.512;37.764;2023-05-14T04:14:18;100672.81;;;17.53;40.67
44198;BME280;30157;55.512;37.764;2023-05-14T04:16:44;100673.75;;;17.50;40.53
44198;BME280;30157;55.512;37.764;2023-05-14T04:19:10;100673.06;;;17.40;40.95
44198;BME280;30157;55.512;37.764;2023-05-14T04:21:36;100657.19;;;17.46;40.50
44198;BME280;30157;55.512;37.764;2023-05-14T04:24:02;100673.97;;;17.82;40.43
44198;BME280;30157;55.512;37.764;2023-05-14T04:26:28;100683.00;;;18.10;40.04
44198;BME280;30157;55.512;37.764;2023-05-14T04:28:54;100665.34;;;18.17;39.63
44198;BME280;30157;55.512;37.764;2023-05-14T04:31:20;100679.41;;;18.52;39.14
44198;BME280;30157;55.512;37.764;2023-05-14T04:33:46;100633.97;;;18.49;38.58
44198;BME280;30157;55.512;37.764;2023-05-14T04:36:12;100619.44;;;18.32;38.60
44198;BME280;30157;55.512;37.764;2023-05-14T04:38:38;100670.91;;;18.78;38.43
44198;BME280;30157;55.512;37.764;2023-05-14T04:41:04;100674.97;;;18.92;38.40
44198;BME280;30157;55.512;37.764;2023-05-14T04:43:30;100652.41;;;18.81;37.72
44198;BME280;30157;55.512;37.764;2023-05-14T04:45:56;100673.31;;;18.88;38.08
44198;BME280;30157;55.512;37.764;2023-05-14T04:48:21;100628.84;;;18.78;38.18
44198;BME280;30157;55.512;37.764;2023-05-14T04:50:47;100679.31;;;19.59;37.45
44198;BME280;30157;55.512;37.764;2023-05-14T04:53:12;100678.75;;;19.79;36.73
44198;BME280;30157;55.512;37.764;2023-05-14T04:55:38;100620.63;;;19.55;36.46
44198;BME280;30157;55.512;37.764;2023-05-14T04:58:04;100675.78;;;19.91;36.03
44198;BME280;30157;55.512;37.764;2023-05-14T05:00:29;100630.47;;;19.78;36.01
44198;BME280;30157;55.512;37.764;2023-05-14T05:02:55;100669.00;;;20.39;35.51
44198;BME280;30157;55.512;37.764;2023-05-14T05:05:21;100683.78;;;20.73;34.79
44198;BME280;30157;55.512;37.764;2023-05-14T05:07:47;100631.75;;;20.50;34.59
44198;BME280;30157;55.512;37.764;2023-05-14T05:10:13;100668.59;;;20.52;34.43
44198;BME280;30157;55.512;37.764;2023-05-14T05:12:40;100681.66;;;20.56;34.79
44198;BME280;30157;55.512;37.764;2023-05-14T05:15:06;100681.34;;;21.19;33.77
44198;BME280;30157;55.512;37.764;2023-05-14T05:17:34;100673.03;;;21.30;33.59
44198;BME280;30157;55.512;37.764;2023-05-14T05:19:59;100667.03;;;20.74;34.24
44198;BME280;30157;55.512;37.764;2023-05-14T05:22:25;100634.81;;;19.79;35.08
44198;BME280;30157;55.512;37.764;2023-05-14T05:24:51;100666.97;;;20.21;35.17
44198;BME280;30157;55.512;37.764;2023-05-14T05:27:17;100682.75;;;20.77;34.44
44198;BME280;30157;55.512;37.764;2023-05-14T05:29:43;100683.22;;;21.15;33.94
44198;BME280;30157;55.512;37.764;2023-05-14T05:32:09;100676.13;;;21.41;33.48
44198;BME280;30157;55.512;37.764;2023-05-14T05:34:34;100684.44;;;21.56;32.90
44198;BME280;30157;55.512;37.764;2023-05-14T05:37:01;100683.09;;;21.69;32.75
44198;BME280;30157;55.512;37.764;2023-05-14T05:39:26;100634.03;;;21.62;32.56
44198;BME280;30157;55.512;37.764;2023-05-14T05:41:52;100665.50;;;21.68;32.75
44198;BME280;30157;55.512;37.764;2023-05-14T05:44:18;100667.03;;;21.74;32.60
44198;BME280;30157;55.512;37.764;2023-05-14T05:46:44;100683.94;;;22.15;32.12
44198;BME280;30157;55.512;37.764;2023-05-14T05:49:09;100674.00;;;22.22;32.08
44198;BME280;30157;55.512;37.764;2023-05-14T05:54:01;100676.91;;;22.38;31.48
44198;BME280;30157;55.512;37.764;2023-05-14T05:56:26;100669.81;;;22.61;31.32
44198;BME280;30157;55.512;37.764;2023-05-14T05:58:52;100659.25;;;22.81;30.88
44198;BME280;30157;55.512;37.764;2023-05-14T06:01:18;100659.06;;;23.27;30.37
44198;BME280;30157;55.512;37.764;2023-05-14T06:03:43;100661.81;;;23.45;29.60
44198;BME280;30157;55.512;37.764;2023-05-14T06:06:09;100556.00;;;22.62;29.38
44198;BME280;30157;55.512;37.764;2023-05-14T06:08:35;100638.22;;;22.99;29.23
44198;BME280;30157;55.512;37.764;2023-05-14T06:11:01;100661.53;;;23.32;29.21
44198;BME280;30157;55.512;37.764;2023-05-14T06:13:26;100673.16;;;23.48;28.83
44198;BME280;30157;55.512;37.764;2023-05-14T06:15:52;100637.31;;;22.79;29.15
44198;BME280;30157;55.512;37.764;2023-05-14T06:18:18;100622.06;;;23.26;29.12
44198;BME280;30157;55.512;37.764;2023-05-14T06:20:43;100666.31;;;24.21;28.50
44198;BME280;30157;55.512;37.764;2023-05-14T06:23:09;100667.25;;;24.91;27.49
44198;BME280;30157;55.512;37.764;2023-05-14T06:25:36;100615.81;;;24.76;26.22
44198;BME280;30157;55.512;37.764;2023-05-14T06:28:02;100620.84;;;24.98;25.61
44198;BME280;30157;55.512;37.764;2023-05-14T06:30:28;100666.38;;;25.26;25.56
44198;BME280;30157;55.512;37.764;2023-05-14T06:32:53;100663.03;;;24.70;26.02
44198;BME280;30157;55.512;37.764;2023-05-14T06:35:19;100666.09;;;24.43;26.51
44198;BME280;30157;55.512;37.764;2023-05-14T06:37:45;100633.03;;;24.13;26.40
44198;BME280;30157;55.512;37.764;2023-05-14T06:40:11;100656.03;;;24.32;25.86
44198;BME280;30157;55.512;37.764;2023-05-14T06:42:40;100654.16;;;24.71;25.54
44198;BME280;30157;55.512;37.764;2023-05-14T06:45:08;100663.66;;;24.92;24.83
44198;BME280;30157;55.512;37.764;2023-05-14T06:47:34;100650.06;;;24.81;25.04
44198;BME280;30157;55.512;37.764;2023-05-14T06:49:59;100648.56;;;24.58;25.26
44198;BME280;30157;55.512;37.764;2023-05-14T06:52:26;100663.59;;;24.76;25.26
44198;BME280;30157;55.512;37.764;2023-05-14T06:54:52;100660.94;;;24.94;24.83
44198;BME280;30157;55.512;37.764;2023-05-14T06:57:17;100672.16;;;25.83;24.37
44198;BME280;30157;55.512;37.764;2023-05-14T06:59:43;100674.03;;;25.81;24.09
44198;BME280;30157;55.512;37.764;2023-05-14T07:02:09;100663.56;;;25.78;23.59
44198;BME280;30157;55.512;37.764;2023-05-14T07:04:35;100674.91;;;24.07;25.22
44198;BME280;30157;55.512;37.764;2023-05-14T07:07:00;100674.09;;;23.66;26.10
44198;BME280;30157;55.512;37.764;2023-05-14T07:09:27;100639.94;;;23.21;26.43
44198;BME280;30157;55.512;37.764;2023-05-14T07:11:52;100640.09;;;23.18;26.66
44198;BME280;30157;55.512;37.764;2023-05-14T07:14:18;100680.31;;;21.96;28.28
44198;BME280;30157;55.512;37.764;2023-05-14T07:16:44;100632.88;;;20.96;29.05
44198;BME280;30157;55.512;37.764;2023-05-14T07:19:11;100677.34;;;21.33;29.28
44198;BME280;30157;55.512;37.764;2023-05-14T07:21:37;100692.84;;;20.36;29.92
44198;BME280;30157;55.512;37.764;2023-05-14T07:24:03;100687.88;;;19.34;30.95
44198;BME280;30157;55.512;37.764;2023-05-14T07:26:29;100690.97;;;18.83;32.03
44198;BME280;30157;55.512;37.764;2023-05-14T07:28:56;100673.50;;;18.44;32.84
44198;BME280;30157;55.512;37.764;2023-05-14T07:31:21;100693.16;;;20.82;29.87
44198;BME280;30157;55.512;37.764;2023-05-14T07:33:47;100678.66;;;20.40;29.81
44198;BME280;30157;55.512;37.764;2023-05-14T07:36:13;100688.06;;;19.91;30.61
44198;BME280;30157;55.512;37.764;2023-05-14T07:38:39;100688.78;;;19.35;31.18
44198;BME280;30157;55.512;37.764;2023-05-14T07:41:05;100690.75;;;19.89;30.43
44198;BME280;30157;55.512;37.764;2023-05-14T07:43:30;100698.91;;;21.93;28.10
44198;BME280;30157;55.512;37.764;2023-05-14T07:45:56;100698.97;;;23.43;26.42
44198;BME280;30157;55.512;37.764;2023-05-14T07:48:22;100689.44;;;24.54;25.77
44198;BME280;30157;55.512;37.764;2023-05-14T07:50:48;100654.22;;;25.38;23.82
44198;BME280;30157;55.512;37.764;2023-05-14T07:53:14;100646.03;;;25.42;22.61
44198;BME280;30157;55.512;37.764;2023-05-14T07:55:40;100686.50;;;26.13;22.80
44198;BME280;30157;55.512;37.764;2023-05-14T07:58:06;100661.28;;;26.04;22.56
44198;BME280;30157;55.512;37.764;2023-05-14T08:00:32;100693.03;;;26.07;22.67
44198;BME280;30157;55.512;37.764;2023-05-14T08:02:58;100622.06;;;25.92;22.16
44198;BME280;30157;55.512;37.764;2023-05-14T08:05:23;100693.47;;;27.23;21.58
44198;BME280;30157;55.512;37.764;2023-05-14T08:07:49;100689.63;;;27.12;21.62
44198;BME280;30157;55.512;37.764;2023-05-14T08:10:15;100681.91;;;27.53;21.88
44198;BME280;30157;55.512;37.764;2023-05-14T08:12:41;100656.72;;;26.06;22.00
44198;BME280;30157;55.512;37.764;2023-05-14T08:15:07;100681.38;;;24.38;23.64
44198;BME280;30157;55.512;37.764;2023-05-14T08:17:33;100697.13;;;23.25;25.34
44198;BME280;30157;55.512;37.764;2023-05-14T08:19:59;100693.41;;;22.45;26.09
44198;BME280;30157;55.512;37.764;2023-05-14T08:22:26;100695.41;;;21.69;27.46
44198;BME280;30157;55.512;37.764;2023-05-14T08:24:51;100679.94;;;21.09;28.15
44198;BME280;30157;55.512;37.764;2023-05-14T08:27:17;100655.28;;;21.34;27.57
44198;BME280;30157;55.512;37.764;2023-05-14T08:29:43;100654.75;;;23.64;25.06
44198;BME280;30157;55.512;37.764;2023-05-14T08:32:08;100677.69;;;25.12;23.28
44198;BME280;30157;55.512;37.764;2023-05-14T08:34:34;100688.72;;;26.37;22.13
44198;BME280;30157;55.512;37.764;2023-05-14T08:37:00;100678.09;;;25.55;22.41
44198;BME280;30157;55.512;37.764;2023-05-14T08:39:26;100666.50;;;24.16;23.76
44198;BME280;30157;55.512;37.764;2023-05-14T08:41:52;100686.78;;;22.98;25.09
44198;BME280;30157;55.512;37.764;2023-05-14T08:44:19;100638.53;;;21.60;26.54
44198;BME280;30157;55.512;37.764;2023-05-14T08:46:45;100684.66;;;21.24;27.97
44198;BME280;30157;55.512;37.764;2023-05-14T08:51:59;100685.00;;;20.35;29.37
44198;BME280;30157;55.512;37.764;2023-05-14T08:54:25;100683.75;;;20.18;29.54
44198;BME280;30157;55.512;37.764;2023-05-14T08:56:51;100680.09;;;19.94;29.71
44198;BME280;30157;55.512;37.764;2023-05-14T08:59:18;100663.34;;;19.95;29.61
44198;BME280;30157;55.512;37.764;2023-05-14T09:01:50;100665.59;;;20.09;30.09
44198;BME280;30157;55.512;37.764;2023-05-14T09:04:19;100675.91;;;19.87;30.38
44198;BME280;30157;55.512;37.764;2023-05-14T09:06:51;100681.59;;;19.71;30.50
44198;BME280;30157;55.512;37.764;2023-05-14T09:09:21;100669.22;;;19.43;31.12
44198;BME280;30157;55.512;37.764;2023-05-14T09:11:49;100688.06;;;19.28;31.97
44198;BME280;30157;55.512;37.764;2023-05-14T09:14:16;100623.09;;;18.62;31.90
44198;BME280;30157;55.512;37.764;2023-05-14T09:16:44;100686.25;;;18.97;32.10
44198;BME280;30157;55.512;37.764;2023-05-14T09:19:11;100640.38;;;18.71;32.31
44198;BME280;30157;55.512;37.764;2023-05-14T09:21:37;100660.16;;;18.88;32.36
44198;BME280;30157;55.512;37.764;2023-05-14T09:24:03;100673.72;;;19.07;31.83
44198;BME280;30157;55.512;37.764;2023-05-14T09:26:31;100660.88;;;19.27;31.67
44198;BME280;30157;55.512;37.764;2023-05-14T09:28:58;100673.50;;;20.09;30.95
44198;BME280;30157;55.512;37.764;2023-05-14T09:31:32;100691.03;;;20.65;30.12
44198;BME280;30157;55.512;37.764;2023-05-14T09:33:58;100680.31;;;20.43;29.42
44198;BME280;30157;55.512;37.764;2023-05-14T09:36:25;100662.41;;;20.26;29.86
44198;BME280;30157;55.512;37.764;2023-05-14T09:38:57;100619.84;;;19.81;29.59
44198;BME280;30157;55.512;37.764;2023-05-14T09:41:23;100681.97;;;20.19;29.68
44198;BME280;30157;55.512;37.764;2023-05-14T09:43:50;100681.13;;;20.17;30.29
44198;BME280;30157;55.512;37.764;2023-05-14T09:46:16;100649.63;;;20.13;29.68
44198;BME280;30157;55.512;37.764;2023-05-14T09:48:42;100657.56;;;20.67;29.53
44198;BME280;30157;55.512;37.764;2023-05-14T09:51:10;100674.66;;;21.09;29.66
44198;BME280;30157;55.512;37.764;2023-05-14T09:53:37;100585.44;;;20.43;30.18
44198;BME280;30157;55.512;37.764;2023-05-14T09:56:04;100678.66;;;20.67;30.04
44198;BME280;30157;55.512;37.764;2023-05-14T09:58:30;100614.75;;;19.75;30.64
44198;BME280;30157;55.512;37.764;2023-05-14T10:00:56;100624.66;;;19.67;31.00
44198;BME280;30157;55.512;37.764;2023-05-14T10:03:24;100666.81;;;19.97;31.05
44198;BME280;30157;55.512;37.764;2023-05-14T10:05:53;100611.16;;;19.78;30.75
44198;BME280;30157;55.512;37.764;2023-05-14T10:08:21;100678.00;;;20.60;30.37
44198;BME280;30157;55.512;37.764;2023-05-14T10:10:50;100661.78;;;20.73;30.29
44198;BME280;30157;55.512;37.764;2023-05-14T10:13:19;100677.00;;;20.64;30.03
44198;BME280;30157;55.512;37.764;2023-05-14T10:18:32;100661.94;;;20.13;30.20
44198;BME280;30157;55.512;37.764;2023-05-14T10:21:04;100675.25;;;20.08;29.55
44198;BME280;30157;55.512;37.764;2023-05-14T10:23:31;100650.09;;;19.98;29.62
44198;BME280;30157;55.512;37.764;2023-05-14T10:25:58;100637.91;;;21.28;27.92
44198;BME280;30157;55.512;37.764;2023-05-14T10:28:25;100667.75;;;21.05;28.99
44198;BME280;30157;55.512;37.764;2023-05-14T10:30:52;100658.41;;;20.68;29.26
44198;BME280;30157;55.512;37.764;2023-05-14T10:33:18;100669.00;;;20.39;29.75
44198;BME280;30157;55.512;37.764;2023-05-14T10:35:54;100614.53;;;19.53;30.14
44198;BME280;30157;55.512;37.764;2023-05-14T10:38:28;100645.78;;;19.34;30.77
44198;BME280;30157;55.512;37.764;2023-05-14T10:41:06;100614.41;;;18.95;30.80
44198;BME280;30157;55.512;37.764;2023-05-14T10:43:39;100667.13;;;19.23;31.12
44198;BME280;30157;55.512;37.764;2023-05-14T10:46:07;100672.19;;;19.31;30.51
44198;BME280;30157;55.512;37.764;2023-05-14T10:48:33;100670.19;;;19.39;30.60
44198;BME280;30157;55.512;37.764;2023-05-14T10:51:00;100663.84;;;19.46;30.90
44198;BME280;30157;55.512;37.764;2023-05-14T10:53:38;100610.75;;;19.32;29.77
44198;BME280;30157;55.512;37.764;2023-05-14T10:56:12;100656.44;;;22.43;26.78
44198;BME280;30157;55.512;37.764;2023-05-14T10:58:41;100658.81;;;25.01;24.29
44198;BME280;30157;55.512;37.764;2023-05-14T11:01:10;100658.66;;;24.69;23.65
44198;BME280;30157;55.512;37.764;2023-05-14T11:03:44;100649.53;;;23.23;24.87
44198;BME280;30157;55.512;37.764;2023-05-14T11:06:12;100598.94;;;22.04;26.25
44198;BME280;30157;55.512;37.764;2023-05-14T11:08:38;100657.66;;;21.89;27.33
44198;BME280;30157;55.512;37.764;2023-05-14T11:11:05;100644.25;;;21.22;27.13
44198;BME280;30157;55.512;37.764;2023-05-14T11:13:31;100593.88;;;20.53;28.09
44198;BME280;30157;55.512;37.764;2023-05-14T11:16:00;100605.13;;;20.31;28.86
44198;BME280;30157;55.512;37.764;2023-05-14T11:18:30;100640.13;;;20.08;29.46
44198;BME280;30157;55.512;37.764;2023-05-14T11:20:58;100653.16;;;20.12;29.45
44198;BME280;30157;55.512;37.764;2023-05-14T11:23:25;100647.53;;;19.95;29.88
44198;BME280;30157;55.512;37.764;2023-05-14T11:25:51;100658.34;;;19.87;29.61
44198;BME280;30157;55.512;37.764;2023-05-14T11:28:22;100656.78;;;19.78;29.90
44198;BME280;30157;55.512;37.764;2023-05-14T11:30:49;100602.50;;;19.44;29.71
44198;BME280;30157;55.512;37.764;2023-05-14T11:33:16;100648.13;;;19.75;29.68
44198;BME280;30157;55.512;37.764;2023-05-14T11:35:42;100655.94;;;20.08;29.68
44198;BME280;30157;55.512;37.764;2023-05-14T11:38:19;100637.97;;;20.49;29.32
44198;BME280;30157;55.512;37.764;2023-05-14T11:40:53;100595.72;;;20.24;29.18
44198;BME280;30157;55.512;37.764;2023-05-14T11:43:19;100629.34;;;20.44;29.05
44198;BME280;30157;55.512;37.764;2023-05-14T11:45:52;100641.25;;;20.29;29.57
44198;BME280;30157;55.512;37.764;2023-05-14T11:48:21;100645.94;;;19.59;30.66
44198;BME280;30157;55.512;37.764;2023-05-14T11:50:49;100648.75;;;19.22;31.07
44198;BME280;30157;55.512;37.764;2023-05-14T11:53:23;100646.75;;;18.99;31.62
44198;BME280;30157;55.512;37.764;2023-05-14T11:55:50;100600.28;;;18.64;31.90
44198;BME280;30157;55.512;37.764;2023-05-14T11:58:17;100634.69;;;18.90;32.28
44198;BME280;30157;55.512;37.764;2023-05-14T12:00:44;100650.84;;;19.09;32.27
44198;BME280;30157;55.512;37.764;2023-05-14T12:03:10;100625.50;;;19.06;32.18
44198;BME280;30157;55.512;37.764;2023-05-14T12:05:37;100620.31;;;19.03;31.52
44198;BME280;30157;55.512;37.764;2023-05-14T12:08:22;100626.88;;;19.20;31.97
44198;BME280;30157;55.512;37.764;2023-05-14T12:10:51;100643.03;;;19.39;31.71
44198;BME280;30157;55.512;37.764;2023-05-14T12:13:17;100642.16;;;19.38;31.46
44198;BME280;30157;55.512;37.764;2023-05-14T12:15:44;100595.88;;;19.31;31.19
44198;BME280;30157;55.512;37.764;2023-05-14T12:18:11;100648.13;;;19.75;31.25
44198;BME280;30157;55.512;37.764;2023-05-14T12:20:37;100633.97;;;19.80;31.38
44198;BME280;30157;55.512;37.764;2023-05-14T12:23:03;100646.38;;;20.05;30.75
44198;BME280;30157;55.512;37.764;2023-05-14T12:25:29;100646.47;;;20.02;30.17
44198;BME280;30157;55.512;37.764;2023-05-14T12:27:55;100646.38;;;20.05;30.55
44198;BME280;30157;55.512;37.764;2023-05-14T12:30:20;100652.97;;;19.90;31.12
44198;BME280;30157;55.512;37.764;2023-05-14T12:32:46;100645.47;;;19.76;31.35
44198;BME280;30157;55.512;37.764;2023-05-14T12:35:15;100606.75;;;19.19;32.15
44198;BME280;30157;55.512;37.764;2023-05-14T12:37:41;100652.13;;;19.27;32.58
44198;BME280;30157;55.512;37.764;2023-05-14T12:40:07;100646.47;;;19.09;32.30
44198;BME280;30157;55.512;37.764;2023-05-14T12:42:33;100640.47;;;19.04;32.43
44198;BME280;30157;55.512;37.764;2023-05-14T12:44:59;100627.69;;;18.90;32.51
44198;BME280;30157;55.512;37.764;2023-05-14T12:47:31;100648.72;;;18.90;32.54
44198;BME280;30157;55.512;37.764;2023-05-14T12:49:56;100632.41;;;18.76;32.96